createdAt,value
2019-01-26T00:07:01.679Z,10.43
2019-01-26T00:09:31.858Z,9.20
2019-01-26T00:15:30.068Z,6.33
2019-01-26T00:18:21.094Z,6.13
2019-01-26T00:21:09.871Z,7.57
2019-01-26T00:24:18.936Z,6.87
2019-01-26T00:27:07.797Z,5.47
2019-01-26T00:29:56.618Z,6.80
2019-01-26T00:32:26.911Z,5.13
2019-01-26T00:35:16.207Z,6.80
2019-01-26T00:38:05.169Z,9.17
2019-01-26T00:40:46.846Z,5.97
2019-01-26T00:52:49.679Z,5.73
2019-01-26T00:58:54.500Z,6.70
2019-01-26T01:01:43.368Z,5.50
2019-01-26T01:04:13.287Z,6.53
2019-01-26T01:07:01.998Z,6.63
2019-01-26T01:09:50.882Z,5.80
2019-01-26T01:12:39.633Z,5.67
2019-01-26T01:15:40.307Z,5.87
2019-01-26T01:18:18.923Z,8.93
2019-01-26T01:20:48.789Z,7.83
2019-01-26T01:23:37.519Z,18.93
2019-01-26T01:26:26.599Z,6.73
2019-01-26T01:28:56.664Z,8.53
2019-01-26T01:31:26.371Z,10.40
2019-01-26T01:33:57.838Z,7.40
2019-01-26T01:36:29.613Z,7.70
2019-01-26T01:38:59.378Z,6.97
2019-01-26T01:41:30.069Z,6.70
2019-01-26T01:44:00.076Z,7.33
2019-01-26T01:46:29.799Z,9.07
2019-01-26T01:48:59.702Z,7.53
2019-01-26T01:51:29.742Z,8.87
2019-01-26T01:53:59.483Z,7.80
2019-01-26T01:56:29.238Z,9.27
2019-01-26T01:58:59.271Z,13.03
2019-01-26T02:01:30.946Z,10.30
2019-01-26T02:04:00.738Z,10.80
2019-01-26T02:06:33.890Z,13.50
2019-01-26T02:09:04.353Z,9.43
2019-01-26T02:11:35.870Z,9.80
2019-01-26T02:14:26.604Z,12.77
2019-01-26T02:23:26.820Z,15.03
2019-01-26T02:26:15.530Z,13.30
2019-01-26T02:29:04.462Z,12.93
2019-01-26T02:31:53.330Z,18.17
2019-01-26T02:34:49.644Z,20.20
2019-01-26T02:41:06.671Z,15.70
2019-01-26T02:43:52.409Z,18.87
2019-01-26T02:46:33.471Z,24.07
2019-01-26T02:52:12.891Z,22.33
2019-01-26T02:55:01.762Z,21.80
2019-01-26T03:07:25.603Z,23.60
2019-01-26T03:13:47.929Z,31.07
2019-01-26T03:22:48.959Z,30.97
2019-01-26T03:28:24.509Z,37.13
2019-01-26T03:37:40.713Z,40.67
2019-01-26T03:40:29.495Z,38.30
2019-01-26T03:46:30.105Z,40.73
2019-01-26T03:49:08.977Z,38.83
2019-01-26T03:51:38.793Z,39.13
2019-01-26T03:54:08.900Z,36.47
2019-01-26T03:56:38.749Z,35.90
2019-01-26T03:59:08.525Z,40.63
2019-01-26T04:01:38.751Z,44.57
2019-01-26T04:04:08.497Z,42.90
2019-01-26T04:06:41.498Z,45.40
2019-01-26T04:09:11.310Z,39.33
2019-01-26T04:11:44.425Z,44.40
2019-01-26T04:14:14.146Z,44.87
2019-01-26T04:16:47.693Z,43.00
2019-01-26T04:19:17.470Z,36.23
2019-01-26T04:21:52.065Z,35.03
2019-01-26T04:24:23.075Z,41.67
2019-01-26T04:26:55.598Z,41.83
2019-01-26T04:29:25.389Z,38.57
2019-01-26T04:32:27.986Z,40.67
2019-01-26T04:41:27.476Z,34.47
2019-01-26T04:46:55.335Z,33.00
2019-01-26T04:49:36.229Z,38.53
2019-01-26T04:52:17.864Z,35.93
2019-01-26T04:54:59.446Z,34.40
2019-01-26T04:57:40.193Z,38.70
2019-01-26T05:00:21.898Z,30.97
2019-01-26T05:03:03.499Z,35.07
2019-01-26T05:05:44.993Z,34.43
2019-01-26T05:08:26.406Z,34.57
2019-01-26T05:11:08.096Z,34.87
2019-01-26T05:13:49.635Z,36.20
2019-01-26T05:16:31.203Z,30.20
2019-01-26T05:19:12.694Z,37.27
2019-01-26T05:21:54.250Z,33.00
2019-01-26T05:24:35.527Z,32.13
2019-01-26T05:27:16.979Z,39.63
2019-01-26T05:29:58.020Z,35.00
2019-01-26T05:32:39.726Z,34.60
2019-01-26T05:35:20.574Z,31.83
2019-01-26T05:38:09.328Z,28.83
2019-01-26T05:49:57.774Z,28.27
2019-01-26T05:52:46.496Z,30.73
2019-01-26T05:55:35.250Z,33.60
2019-01-26T06:10:53.991Z,26.13
2019-01-26T06:13:42.623Z,26.20
2019-01-26T06:16:16.463Z,27.73
2019-01-26T06:22:06.038Z,30.07
2019-01-26T06:25:00.870Z,25.43
2019-01-26T06:30:42.468Z,20.53
2019-01-26T06:33:31.227Z,21.77
2019-01-26T06:36:12.992Z,23.77
2019-01-26T06:38:54.315Z,24.43
2019-01-26T06:41:36.000Z,17.67
2019-01-26T06:46:59.852Z,21.10
2019-01-26T06:49:40.662Z,15.87
2019-01-26T06:52:22.047Z,18.90
2019-01-26T06:55:03.688Z,17.70
2019-01-26T06:57:45.207Z,21.37
2019-01-26T07:00:29.159Z,17.47
2019-01-26T07:03:25.254Z,19.47
2019-01-26T07:06:32.810Z,17.43
2019-01-26T07:15:21.631Z,14.03
2019-01-26T07:18:10.347Z,15.90
2019-01-26T07:20:59.244Z,16.53
2019-01-26T07:23:36.326Z,17.70
2019-01-26T07:26:06.193Z,14.37
2019-01-26T07:28:42.011Z,14.73
2019-01-26T07:31:11.756Z,15.17
2019-01-26T07:33:44.305Z,15.60
2019-01-26T07:36:14.041Z,13.10
2019-01-26T07:38:47.034Z,12.93
2019-01-26T07:41:17.096Z,14.83
2019-01-26T07:43:49.964Z,15.40
2019-01-26T07:46:19.691Z,13.67
2019-01-26T07:48:53.217Z,14.63
2019-01-26T07:51:22.935Z,16.53
2019-01-26T07:53:55.795Z,15.13
2019-01-26T07:56:25.951Z,14.17
2019-01-26T07:59:14.897Z,18.53
2019-01-26T08:01:45.113Z,12.93
2019-01-26T08:04:14.896Z,13.60
2019-01-26T08:06:44.627Z,16.77
2019-01-26T08:09:14.684Z,12.50
2019-01-26T08:11:45.589Z,11.70
2019-01-26T08:14:17.048Z,15.80
2019-01-26T08:16:46.946Z,13.83
2019-01-26T08:19:16.667Z,14.33
2019-01-26T08:21:46.700Z,13.30
2019-01-26T08:24:18.499Z,15.60
2019-01-26T08:26:48.280Z,13.07
2019-01-26T08:29:18.599Z,11.83
2019-01-26T08:31:48.385Z,12.60
2019-01-26T08:34:22.384Z,9.40
2019-01-26T08:36:52.223Z,11.70
2019-01-26T08:39:26.705Z,13.33
2019-01-26T08:41:57.148Z,12.30
2019-01-26T08:44:26.907Z,12.23
2019-01-26T08:46:57.980Z,9.80
2019-01-26T08:49:30.968Z,11.77
2019-01-26T08:52:03.730Z,9.93
2019-01-26T08:54:33.593Z,11.10
2019-01-26T08:57:03.804Z,9.77
2019-01-26T08:59:34.297Z,10.23
2019-01-26T09:02:25.462Z,11.67
2019-01-26T09:04:54.557Z,13.30
2019-01-26T09:07:24.582Z,16.27
2019-01-26T09:09:54.798Z,12.03
2019-01-26T09:12:24.541Z,15.57
2019-01-26T09:14:54.365Z,12.87
2019-01-26T09:17:24.581Z,15.30
2019-01-26T09:19:54.375Z,15.33
2019-01-26T09:22:24.283Z,18.43
2019-01-26T09:24:54.389Z,19.57
2019-01-26T09:27:24.181Z,19.10
2019-01-26T09:29:54.031Z,18.80
2019-01-26T09:32:24.138Z,18.07
2019-01-26T09:34:57.978Z,17.10
2019-01-26T09:37:27.809Z,16.43
2019-01-26T09:39:58.087Z,14.80
2019-01-26T09:42:28.158Z,16.13
2019-01-26T09:45:01.265Z,19.10
2019-01-26T09:47:31.318Z,14.93
2019-01-26T09:50:04.790Z,17.63
2019-01-26T09:52:34.622Z,17.13
2019-01-26T09:55:09.711Z,16.03
2019-01-26T09:57:39.807Z,17.60
2019-01-26T10:00:15.677Z,17.80
2019-01-26T10:02:45.724Z,14.87
2019-01-26T10:05:15.717Z,19.40
2019-01-26T10:07:45.562Z,22.37
2019-01-26T10:10:18.836Z,18.60
2019-01-26T10:12:48.719Z,20.17
2019-01-26T10:15:19.616Z,18.00
2019-01-26T10:17:50.257Z,19.07
2019-01-26T10:20:25.003Z,16.90
2019-01-26T10:22:54.949Z,19.30
2019-01-26T10:25:27.574Z,21.70
2019-01-26T10:27:57.523Z,21.27
2019-01-26T10:30:55.678Z,20.00
2019-01-26T10:33:33.662Z,18.90
2019-01-26T10:36:29.099Z,19.93
2019-01-26T10:39:01.482Z,21.47
2019-01-26T10:41:46.189Z,23.37
2019-01-26T10:44:21.551Z,23.10
2019-01-26T10:46:51.434Z,24.77
2019-01-26T10:49:21.667Z,26.60
2019-01-26T10:52:10.643Z,19.93
2019-01-26T10:54:59.510Z,27.10
2019-01-26T10:57:43.244Z,23.47
2019-01-26T11:00:15.929Z,26.00
2019-01-26T11:03:05.304Z,23.27
2019-01-26T11:05:35.488Z,26.20
2019-01-26T11:08:24.356Z,22.67
2019-01-26T11:10:54.640Z,27.60
2019-01-26T11:13:24.707Z,25.70
2019-01-26T11:16:13.524Z,21.90
2019-01-26T11:19:07.881Z,19.80
2019-01-26T11:22:13.118Z,19.27
2019-01-26T11:25:22.991Z,23.00
2019-01-26T11:28:31.552Z,18.03
2019-01-26T11:31:20.983Z,17.47
2019-01-26T11:34:10.195Z,15.23
2019-01-26T11:36:59.081Z,17.43
2019-01-26T11:42:39.641Z,12.83
2019-01-26T11:45:47.287Z,12.20
2019-01-26T11:48:24.115Z,12.20
2019-01-26T11:51:50.750Z,10.57
2019-01-26T11:54:20.664Z,10.00
2019-01-26T11:57:28.318Z,6.50
2019-01-26T12:00:28.286Z,4.97
2019-01-26T12:03:22.392Z,3.83
2019-01-26T12:06:23.677Z,6.77
2019-01-26T12:09:06.494Z,5.07
2019-01-26T12:11:36.477Z,5.87
2019-01-26T12:14:44.203Z,5.63
2019-01-26T12:17:14.232Z,6.60
2019-01-26T12:20:03.028Z,4.23
2019-01-26T12:22:51.892Z,5.57
2019-01-26T12:26:13.305Z,4.60
2019-01-26T12:29:03.660Z,4.00
2019-01-26T12:31:23.729Z,5.43
2019-01-26T12:33:53.560Z,7.33
2019-01-26T12:36:42.443Z,9.73
2019-01-26T12:39:31.242Z,6.43
2019-01-26T12:42:20.008Z,6.10
2019-01-26T12:50:24.819Z,6.50
2019-01-26T12:52:54.923Z,6.77
2019-01-26T12:55:43.757Z,7.30
2019-01-26T13:01:33.327Z,7.40
2019-01-26T13:04:03.528Z,5.53
2019-01-26T13:06:33.390Z,6.07
2019-01-26T13:09:33.873Z,6.93
2019-01-26T13:12:12.950Z,5.47
2019-01-26T13:15:20.703Z,6.27
2019-01-26T13:17:50.633Z,9.30
2019-01-26T13:20:21.154Z,4.97
2019-01-26T13:23:12.913Z,4.53
2019-01-26T13:26:01.731Z,3.93
2019-01-26T13:28:50.571Z,4.37
2019-01-26T13:34:28.451Z,4.37
2019-01-26T13:37:36.241Z,5.13
2019-01-26T13:40:08.109Z,4.13
2019-01-26T13:42:38.223Z,4.00
2019-01-26T13:45:10.278Z,3.40
2019-01-26T13:47:40.267Z,3.83
2019-01-26T13:50:30.984Z,3.67
2019-01-26T14:02:10.534Z,3.23
2019-01-26T14:04:59.427Z,2.40
2019-01-26T14:07:48.411Z,3.17
2019-01-26T14:10:18.544Z,3.07
2019-01-26T14:12:48.491Z,3.80
2019-01-26T14:15:19.122Z,2.57
2019-01-26T14:17:49.244Z,4.40
2019-01-26T14:20:23.032Z,3.83
2019-01-26T14:22:53.013Z,1.90
2019-01-26T14:25:22.969Z,2.23
2019-01-26T14:27:55.688Z,2.27
2019-01-26T14:30:34.536Z,2.83
2019-01-26T14:33:04.818Z,2.47
2019-01-26T14:35:34.714Z,2.30
2019-01-26T14:38:04.748Z,5.30
2019-01-26T14:40:35.185Z,3.70
2019-01-26T14:43:25.459Z,2.60
2019-01-26T14:46:14.233Z,2.70
2019-01-26T14:48:44.245Z,3.37
2019-01-26T14:54:23.712Z,2.33
2019-01-26T14:57:12.800Z,2.37
2019-01-26T14:59:42.749Z,3.10
2019-01-26T15:02:15.516Z,4.20
2019-01-26T15:04:45.364Z,1.70
2019-01-26T15:07:16.246Z,2.33
2019-01-26T15:10:05.079Z,1.50
2019-01-26T15:15:42.791Z,1.83
2019-01-26T15:18:43.735Z,3.07
2019-01-26T15:21:03.812Z,2.17
2019-01-26T15:23:52.654Z,2.17
2019-01-26T15:26:41.554Z,2.37
2019-01-26T15:29:32.211Z,1.83
2019-01-26T15:32:02.450Z,1.97
2019-01-26T15:34:51.547Z,1.50
2019-01-26T15:37:40.541Z,1.63
2019-01-26T15:40:10.817Z,1.57
2019-01-26T15:42:41.156Z,1.73
2019-01-26T15:45:19.653Z,2.57
2019-01-26T15:48:08.770Z,3.17
2019-01-26T15:53:39.557Z,4.37
2019-01-26T15:56:28.455Z,2.00
2019-01-26T16:02:07.855Z,3.53
2019-01-26T16:04:49.204Z,2.93
2019-01-26T16:07:30.668Z,1.40
2019-01-26T16:10:12.164Z,1.40
2019-01-26T16:12:53.636Z,1.40
2019-01-26T16:15:35.362Z,2.43
2019-01-26T16:18:15.895Z,5.37
2019-01-26T16:23:55.664Z,1.40
2019-01-26T16:26:44.523Z,1.57
2019-01-26T16:29:14.429Z,1.93
2019-01-26T16:37:55.885Z,2.53
2019-01-26T16:40:44.772Z,2.30
2019-01-26T16:46:24.193Z,1.90
2019-01-26T16:49:13.043Z,2.37
2019-01-26T16:51:43.047Z,1.50
2019-01-26T16:54:31.818Z,1.87
2019-01-26T16:57:01.813Z,2.43
2019-01-26T16:59:32.069Z,3.10
2019-01-26T17:02:01.905Z,2.90
2019-01-26T17:04:31.777Z,2.53
2019-01-26T17:07:01.890Z,1.93
2019-01-26T17:09:31.694Z,3.73
2019-01-26T17:12:39.463Z,2.67
2019-01-26T17:18:38.087Z,3.53
2019-01-26T17:21:46.008Z,2.27
2019-01-26T17:24:36.328Z,2.30
2019-01-26T17:27:06.219Z,4.03
2019-01-26T17:29:36.067Z,2.70
2019-01-26T17:35:27.323Z,4.53
2019-01-26T17:38:16.219Z,3.23
2019-01-26T17:40:46.114Z,3.30
2019-01-26T17:46:25.371Z,2.30
2019-01-26T17:52:03.174Z,3.00
2019-01-26T17:54:33.249Z,1.40
2019-01-26T17:57:03.399Z,2.47
2019-01-26T18:02:18.534Z,2.63
2019-01-26T18:07:57.651Z,6.27
2019-01-26T18:10:27.668Z,7.97
2019-01-26T18:13:16.573Z,5.50
2019-01-26T18:15:46.453Z,1.83
2019-01-26T18:18:35.306Z,1.70
2019-01-26T18:21:24.294Z,1.63
2019-01-26T18:26:55.437Z,9.37
2019-01-26T18:29:25.242Z,3.60
2019-01-26T18:31:55.135Z,3.57
2019-01-26T18:34:44.118Z,3.47
2019-01-26T18:37:33.065Z,1.63
2019-01-26T18:40:22.884Z,1.80
2019-01-26T18:42:52.917Z,2.40
2019-01-26T18:45:24.122Z,3.13
2019-01-26T18:47:54.359Z,3.03
2019-01-26T18:56:52.085Z,2.20
2019-01-26T18:59:41.193Z,2.10
2019-01-26T19:02:30.108Z,2.07
2019-01-26T19:05:03.809Z,2.30
2019-01-26T19:07:33.826Z,2.63
2019-01-26T19:13:06.256Z,2.37
2019-01-26T19:15:55.019Z,2.43
2019-01-26T19:18:25.288Z,1.93
2019-01-26T19:21:02.847Z,1.90
2019-01-26T19:23:27.849Z,2.07
2019-01-26T19:26:17.324Z,3.40
2019-01-26T19:28:47.222Z,1.57
2019-01-26T19:31:36.080Z,1.57
2019-01-26T19:34:24.919Z,2.10
2019-01-26T19:36:55.160Z,1.70
2019-01-26T19:39:25.050Z,1.30
2019-01-26T19:45:02.999Z,1.00
2019-01-26T19:48:00.226Z,1.07
2019-01-26T19:51:09.737Z,1.43
2019-01-26T19:53:22.932Z,1.50
2019-01-26T19:55:52.901Z,0.93
2019-01-26T19:58:23.433Z,1.40
2019-01-26T20:00:53.455Z,1.83
2019-01-26T20:03:23.288Z,1.40
2019-01-26T20:05:53.447Z,1.00
2019-01-26T20:08:25.235Z,1.20
2019-01-26T20:10:55.209Z,1.13
2019-01-26T20:13:25.053Z,1.27
2019-01-26T20:15:55.027Z,1.40
2019-01-26T20:18:26.343Z,1.80
2019-01-26T20:20:56.335Z,1.00
2019-01-26T20:23:26.352Z,1.60
2019-01-26T20:25:57.633Z,1.43
2019-01-26T20:28:27.795Z,1.40
2019-01-26T20:30:57.624Z,1.37
2019-01-26T20:33:28.014Z,0.80
2019-01-26T20:35:58.099Z,1.10
2019-01-26T20:38:30.345Z,1.00
2019-01-26T20:41:00.314Z,0.87
2019-01-26T20:46:15.778Z,1.10
2019-01-26T20:49:18.146Z,1.03
2019-01-26T20:51:36.760Z,1.23
2019-01-26T20:54:06.858Z,1.30
2019-01-26T20:56:55.684Z,1.93
2019-01-26T20:59:45.608Z,2.37
2019-01-26T21:02:15.606Z,0.90
2019-01-26T21:04:45.666Z,1.70
2019-01-26T21:07:20.472Z,1.50
2019-01-26T21:09:51.985Z,1.33
2019-01-26T21:12:21.896Z,0.97
2019-01-26T21:14:51.748Z,1.03
2019-01-26T21:17:21.635Z,0.70
2019-01-26T21:20:11.409Z,1.63
2019-01-26T21:22:41.251Z,0.97
2019-01-26T21:28:21.537Z,0.90
2019-01-26T21:31:10.709Z,1.07
2019-01-26T21:33:59.588Z,1.70
2019-01-26T21:36:30.375Z,1.27
2019-01-26T21:39:19.265Z,2.10
2019-01-26T21:41:49.401Z,1.00
2019-01-26T21:44:19.253Z,1.37
2019-01-26T21:46:51.778Z,1.13
2019-01-26T21:49:21.929Z,1.30
2019-01-26T21:51:51.855Z,2.50
2019-01-26T21:54:41.771Z,0.63
2019-01-26T21:57:30.688Z,1.50
2019-01-26T22:00:00.858Z,1.80
2019-01-26T22:02:30.745Z,1.10
2019-01-26T22:05:00.807Z,3.87
2019-01-26T22:07:31.068Z,1.07
2019-01-26T22:10:20.263Z,0.80
2019-01-26T22:12:51.578Z,0.80
2019-01-26T22:18:01.237Z,0.50
2019-01-26T22:20:31.151Z,0.70
2019-01-26T22:23:40.214Z,0.50
2019-01-26T22:26:29.146Z,1.10
2019-01-26T22:28:59.299Z,0.80
2019-01-26T22:34:38.764Z,0.70
2019-01-26T22:37:08.603Z,1.07
2019-01-26T22:39:38.580Z,0.50
2019-01-26T22:42:09.815Z,0.60
2019-01-26T22:44:39.760Z,0.50
2019-01-26T22:47:09.871Z,0.43
2019-01-26T22:49:58.727Z,0.90
2019-01-26T22:52:47.594Z,1.77
2019-01-26T23:01:49.739Z,1.13
2019-01-26T23:04:52.316Z,0.90
2019-01-26T23:07:44.101Z,1.10
2019-01-26T23:10:42.875Z,1.17
2019-01-26T23:13:35.413Z,1.10
2019-01-26T23:16:32.852Z,0.80
2019-01-26T23:19:43.512Z,0.80
2019-01-26T23:23:01.953Z,1.03
2019-01-26T23:25:53.552Z,0.50
2019-01-26T23:29:20.146Z,0.87
2019-01-26T23:32:08.922Z,0.83
2019-01-26T23:34:38.812Z,2.03
2019-01-26T23:37:27.655Z,2.00
2019-01-26T23:40:16.457Z,0.50
2019-01-26T23:43:18.207Z,0.87
2019-01-26T23:45:56.896Z,1.60
2019-01-26T23:48:45.776Z,0.80
2019-01-26T23:55:02.021Z,1.30
2019-01-26T23:57:50.840Z,1.07
